createdAt,value
2023-04-25T00:01:06.877Z,86.70
2023-04-25T00:03:33.869Z,86.89
2023-04-25T00:06:02.994Z,86.94
2023-04-25T00:08:32.931Z,87.54
2023-04-25T00:11:00.307Z,87.54
2023-04-25T00:13:27.317Z,87.65
2023-04-25T00:15:54.407Z,87.72
2023-04-25T00:18:21.260Z,87.46
2023-04-25T00:20:48.426Z,87.39
2023-04-25T00:23:19.339Z,87.44
2023-04-25T00:25:47.181Z,87.27
2023-04-25T00:28:14.227Z,87.32
2023-04-25T00:30:41.984Z,87.15
2023-04-25T00:33:08.875Z,87.07
2023-04-25T00:35:35.921Z,86.70
2023-04-25T00:38:02.640Z,86.49
2023-04-25T00:40:29.574Z,86.68
2023-04-25T00:42:56.212Z,86.48
2023-04-25T00:45:26.185Z,86.32
2023-04-25T00:47:53.050Z,86.57
2023-04-25T00:50:20.093Z,86.00
2023-04-25T00:52:46.946Z,85.77
2023-04-25T00:55:14.296Z,85.84
2023-04-25T00:57:41.666Z,85.46
2023-04-25T01:00:10.906Z,85.43
2023-04-25T01:02:38.767Z,85.41
2023-04-25T01:05:05.981Z,85.35
2023-04-25T01:07:32.961Z,85.40
2023-04-25T01:09:59.814Z,85.58
2023-04-25T01:12:26.553Z,85.07
2023-04-25T01:14:53.560Z,85.35
2023-04-25T01:17:20.686Z,85.27
2023-04-25T01:19:49.296Z,85.02
2023-04-25T01:22:16.373Z,84.89
2023-04-25T01:24:43.231Z,85.56
2023-04-25T01:27:10.653Z,85.51
2023-04-25T01:29:37.789Z,85.45
2023-04-25T01:32:06.667Z,85.80
2023-04-25T01:34:33.586Z,85.73
2023-04-25T01:37:02.227Z,85.45
2023-04-25T01:39:29.109Z,85.91
2023-04-25T01:41:57.488Z,86.10
2023-04-25T01:44:24.535Z,86.35
2023-04-25T01:46:51.174Z,86.39
2023-04-25T01:49:18.027Z,86.84
2023-04-25T01:51:45.290Z,87.08
2023-04-25T01:54:12.467Z,87.04
2023-04-25T01:56:40.196Z,87.40
2023-04-25T01:59:07.174Z,87.38
2023-04-25T02:01:34.499Z,87.39
2023-04-25T02:04:01.427Z,87.84
2023-04-25T02:06:28.479Z,87.59
2023-04-25T02:08:55.222Z,87.90
2023-04-25T02:11:22.102Z,87.84
2023-04-25T02:13:49.347Z,88.00
2023-04-25T02:16:16.048Z,88.41
2023-04-25T02:18:43.524Z,88.53
2023-04-25T02:21:10.147Z,89.03
2023-04-25T02:23:37.142Z,89.63
2023-04-25T02:26:04.122Z,90.83
2023-04-25T02:28:31.456Z,91.74
2023-04-25T02:30:58.501Z,92.79
2023-04-25T02:33:25.429Z,93.06
2023-04-25T02:35:52.544Z,94.09
2023-04-25T02:38:19.343Z,95.09
2023-04-25T02:40:46.052Z,95.96
2023-04-25T02:43:12.995Z,96.41
2023-04-25T02:45:39.613Z,96.52
2023-04-25T02:48:06.513Z,96.75
2023-04-25T02:50:33.361Z,96.92
2023-04-25T02:53:00.394Z,96.74
2023-04-25T02:55:28.508Z,96.70
2023-04-25T02:57:56.380Z,97.03
2023-04-25T03:00:23.702Z,95.89
2023-04-25T03:02:50.849Z,92.97
2023-04-25T03:05:26.446Z,92.30
2023-04-25T03:07:53.132Z,92.16
2023-04-25T03:10:20.163Z,91.99
2023-04-25T03:12:46.904Z,91.66
2023-04-25T03:15:13.646Z,91.54
2023-04-25T03:17:41.064Z,91.61
2023-04-25T03:20:09.508Z,91.11
2023-04-25T03:22:36.456Z,91.27
2023-04-25T03:25:03.681Z,91.29
2023-04-25T03:27:30.748Z,91.20
2023-04-25T03:29:57.508Z,91.27
2023-04-25T03:32:24.203Z,91.38
2023-04-25T03:34:51.018Z,91.39
2023-04-25T03:37:17.964Z,91.69
2023-04-25T03:39:44.934Z,91.61
2023-04-25T03:42:11.881Z,91.53
2023-04-25T03:44:38.748Z,91.46
2023-04-25T03:47:05.569Z,91.43
2023-04-25T03:49:33.532Z,91.52
2023-04-25T03:52:01.335Z,91.19
2023-04-25T03:54:28.244Z,91.25
2023-04-25T03:56:55.223Z,90.85
2023-04-25T03:59:22.026Z,90.41
2023-04-25T04:01:48.684Z,90.61
2023-04-25T04:04:15.657Z,90.51
2023-04-25T04:06:43.305Z,90.10
2023-04-25T04:09:11.976Z,90.00
2023-04-25T04:11:39.498Z,89.50
2023-04-25T04:14:06.942Z,88.41
2023-04-25T04:16:34.643Z,88.35
2023-04-25T04:19:01.649Z,88.31
2023-04-25T04:21:28.509Z,87.66
2023-04-25T04:23:55.564Z,87.68
2023-04-25T04:26:25.354Z,87.51
2023-04-25T04:28:52.866Z,87.25
2023-04-25T04:31:20.716Z,86.91
2023-04-25T04:33:49.345Z,85.53
2023-04-25T04:36:16.729Z,85.35
2023-04-25T04:38:43.948Z,85.65
2023-04-25T04:41:10.989Z,85.09
2023-04-25T04:43:37.751Z,84.97
2023-04-25T04:46:05.181Z,84.59
2023-04-25T04:48:35.717Z,84.13
2023-04-25T04:51:02.307Z,83.05
2023-04-25T04:53:29.156Z,83.09
2023-04-25T04:55:56.084Z,83.31
2023-04-25T04:58:22.898Z,82.65
2023-04-25T05:00:49.784Z,82.59
2023-04-25T05:03:16.691Z,82.54
2023-04-25T05:05:43.849Z,81.62
2023-04-25T05:08:10.563Z,80.88
2023-04-25T05:10:37.353Z,80.52
2023-04-25T05:13:04.165Z,79.12
2023-04-25T05:15:30.900Z,78.11
2023-04-25T05:17:57.763Z,78.33
2023-04-25T05:20:24.521Z,78.22
2023-04-25T05:22:51.744Z,77.94
2023-04-25T05:25:18.754Z,77.85
2023-04-25T05:27:45.649Z,77.28
2023-04-25T05:30:12.737Z,77.23
2023-04-25T05:32:39.741Z,76.82
2023-04-25T05:35:07.813Z,77.04
2023-04-25T05:37:34.725Z,76.32
2023-04-25T05:40:02.013Z,75.66
2023-04-25T05:42:28.793Z,74.21
2023-04-25T05:44:55.685Z,74.43
2023-04-25T05:47:22.510Z,73.99
2023-04-25T05:49:49.256Z,73.69
2023-04-25T05:52:16.458Z,72.96
2023-04-25T05:54:43.096Z,72.09
2023-04-25T05:57:09.881Z,71.24
2023-04-25T05:59:36.787Z,70.53
2023-04-25T06:02:03.430Z,68.97
2023-04-25T06:04:30.519Z,68.85
2023-04-25T06:06:57.319Z,69.50
2023-04-25T06:09:24.205Z,68.36
2023-04-25T06:11:50.892Z,67.64
2023-04-25T06:14:17.600Z,68.24
2023-04-25T06:16:44.283Z,67.80
2023-04-25T06:19:11.150Z,66.27
2023-04-25T06:21:37.843Z,67.14
2023-04-25T06:24:05.048Z,65.83
2023-04-25T06:26:31.927Z,65.85
2023-04-25T06:28:58.643Z,67.03
2023-04-25T06:31:26.265Z,67.56
2023-04-25T06:33:55.617Z,67.15
2023-04-25T06:36:26.833Z,66.82
2023-04-25T06:38:53.680Z,67.41
2023-04-25T06:41:20.877Z,68.71
2023-04-25T06:43:47.568Z,69.00
2023-04-25T06:46:14.239Z,68.69
2023-04-25T06:48:41.097Z,64.32
2023-04-25T06:51:07.903Z,65.39
2023-04-25T06:53:34.955Z,66.67
2023-04-25T06:56:01.807Z,67.09
2023-04-25T06:58:28.960Z,67.15
2023-04-25T07:00:56.049Z,64.68
2023-04-25T07:03:22.973Z,65.83
2023-04-25T07:05:49.915Z,65.34
2023-04-25T07:08:16.609Z,64.88
2023-04-25T07:10:43.584Z,66.11
2023-04-25T07:13:10.544Z,65.06
2023-04-25T07:15:37.153Z,64.34
2023-04-25T07:18:03.923Z,63.43
2023-04-25T07:20:32.082Z,63.13
2023-04-25T07:22:58.885Z,63.04
2023-04-25T07:25:25.886Z,61.97
2023-04-25T07:27:52.735Z,62.14
2023-04-25T07:30:19.358Z,63.75
2023-04-25T07:32:46.643Z,64.32
2023-04-25T07:35:13.496Z,65.12
2023-04-25T07:37:40.577Z,64.79
2023-04-25T07:40:08.932Z,65.39
2023-04-25T07:42:36.156Z,66.31
2023-04-25T07:45:04.089Z,64.40
2023-04-25T07:47:31.149Z,65.19
2023-04-25T07:49:58.797Z,64.79
2023-04-25T07:52:25.591Z,63.64
2023-04-25T07:54:52.869Z,63.27
2023-04-25T07:57:20.519Z,63.24
2023-04-25T07:59:47.400Z,62.90
2023-04-25T08:02:14.446Z,61.93
2023-04-25T08:04:41.759Z,62.10
2023-04-25T08:07:09.130Z,62.49
2023-04-25T08:09:37.266Z,62.15
2023-04-25T08:12:04.788Z,60.81
2023-04-25T08:14:36.495Z,59.64
2023-04-25T08:17:06.509Z,58.00
2023-04-25T08:19:33.446Z,57.90
2023-04-25T08:22:00.246Z,55.54
2023-04-25T08:24:27.216Z,57.99
2023-04-25T08:26:54.951Z,57.17
2023-04-25T08:29:22.462Z,56.36
2023-04-25T08:31:49.310Z,55.69
2023-04-25T08:34:16.300Z,55.97
2023-04-25T08:36:43.150Z,56.30
2023-04-25T08:39:10.022Z,54.19
2023-04-25T08:41:38.188Z,53.90
2023-04-25T08:44:06.386Z,54.19
2023-04-25T08:46:33.594Z,53.81
2023-04-25T08:49:03.758Z,53.43
2023-04-25T08:51:33.378Z,53.37
2023-04-25T08:56:48.912Z,52.21
2023-04-25T08:59:15.885Z,52.61
2023-04-25T09:01:42.942Z,52.42
2023-04-25T09:04:09.784Z,53.05
2023-04-25T09:06:37.078Z,52.24
2023-04-25T09:09:08.982Z,53.64
2023-04-25T09:11:37.580Z,54.47
2023-04-25T09:14:16.471Z,55.18
2023-04-25T09:16:58.846Z,53.83
2023-04-25T09:19:46.759Z,53.72
2023-04-25T09:22:13.599Z,53.88
2023-04-25T09:24:42.689Z,53.93
2023-04-25T09:27:12.561Z,54.33
2023-04-25T09:29:41.491Z,52.46
2023-04-25T09:32:23.598Z,52.36
2023-04-25T09:34:51.662Z,52.75
2023-04-25T09:37:26.144Z,50.51
2023-04-25T09:39:55.671Z,46.03
2023-04-25T09:42:27.674Z,45.88
2023-04-25T09:44:56.397Z,45.75
2023-04-25T09:47:26.350Z,45.74
2023-04-25T09:49:54.612Z,46.14
2023-04-25T09:52:25.363Z,46.45
2023-04-25T09:54:53.260Z,44.20
2023-04-25T09:57:21.640Z,44.92
2023-04-25T09:59:54.137Z,44.84
2023-04-25T10:02:26.848Z,44.79
2023-04-25T10:04:56.223Z,43.39
2023-04-25T10:07:30.351Z,43.26
2023-04-25T10:10:05.407Z,44.25
2023-04-25T10:12:33.727Z,43.66
2023-04-25T10:15:01.480Z,43.56
2023-04-25T10:17:29.269Z,45.12
2023-04-25T10:19:57.323Z,44.65
2023-04-25T10:22:32.026Z,43.99
2023-04-25T10:24:59.361Z,44.26
2023-04-25T10:27:28.895Z,43.98
2023-04-25T10:30:01.926Z,43.86
2023-04-25T10:32:31.210Z,45.38
2023-04-25T10:34:58.131Z,46.29
2023-04-25T10:37:25.529Z,46.54
2023-04-25T10:39:54.255Z,47.18
2023-04-25T10:42:21.063Z,48.07
2023-04-25T10:45:04.211Z,48.37
2023-04-25T10:47:37.962Z,48.77
2023-04-25T10:50:09.814Z,48.31
2023-04-25T10:52:39.723Z,49.40
2023-04-25T10:55:06.915Z,48.96
2023-04-25T10:57:47.113Z,48.53
2023-04-25T11:00:19.561Z,48.04
2023-04-25T11:03:04.803Z,48.53
2023-04-25T11:05:43.842Z,48.62
2023-04-25T11:08:28.226Z,48.36
2023-04-25T11:10:56.075Z,47.08
2023-04-25T11:13:23.553Z,46.73
2023-04-25T11:16:03.059Z,46.61
2023-04-25T11:18:41.719Z,46.29
2023-04-25T11:21:08.694Z,45.07
2023-04-25T11:23:35.653Z,44.05
2023-04-25T11:26:02.461Z,43.36
2023-04-25T11:28:29.500Z,43.27
2023-04-25T11:30:56.812Z,42.90
2023-04-25T11:33:28.379Z,42.30
2023-04-25T11:35:56.554Z,41.92
2023-04-25T11:38:27.188Z,40.80
2023-04-25T11:40:54.656Z,40.05
2023-04-25T11:43:22.936Z,39.91
2023-04-25T11:45:53.771Z,40.89
2023-04-25T11:48:22.364Z,42.96
2023-04-25T11:50:53.025Z,45.38
2023-04-25T11:53:20.388Z,47.49
2023-04-25T11:55:47.026Z,49.96
2023-04-25T11:58:14.833Z,54.39
2023-04-25T12:00:50.426Z,57.89
2023-04-25T12:03:19.582Z,60.96
2023-04-25T12:05:47.604Z,63.52
2023-04-25T12:08:15.522Z,63.86
2023-04-25T12:10:44.874Z,63.59
2023-04-25T12:13:21.672Z,63.88
2023-04-25T12:15:48.771Z,62.10
2023-04-25T12:18:15.965Z,61.63
2023-04-25T12:20:42.690Z,59.69
2023-04-25T12:23:09.664Z,57.41
2023-04-25T12:25:45.549Z,54.99
2023-04-25T12:28:20.665Z,54.56
2023-04-25T12:30:57.475Z,52.22
2023-04-25T12:33:24.898Z,47.46
2023-04-25T12:35:51.651Z,45.69
2023-04-25T12:38:38.102Z,43.59
2023-04-25T12:41:04.752Z,40.81
2023-04-25T12:43:31.544Z,39.01
2023-04-25T12:45:58.364Z,38.08
2023-04-25T12:48:25.383Z,38.76
2023-04-25T12:50:53.189Z,40.19
2023-04-25T12:53:21.401Z,40.81
2023-04-25T12:55:48.686Z,43.77
2023-04-25T12:58:16.711Z,43.29
2023-04-25T13:00:44.077Z,43.68
2023-04-25T13:03:12.087Z,43.75
2023-04-25T13:05:39.723Z,44.07
2023-04-25T13:08:06.417Z,44.47
2023-04-25T13:10:34.847Z,43.71
2023-04-25T13:13:02.389Z,43.17
2023-04-25T13:15:29.555Z,43.24
2023-04-25T13:17:57.074Z,44.57
2023-04-25T13:20:24.178Z,45.14
2023-04-25T13:22:51.100Z,45.04
2023-04-25T13:25:17.821Z,45.55
2023-04-25T13:27:45.301Z,46.07
2023-04-25T13:30:12.470Z,47.45
2023-04-25T13:32:39.521Z,49.11
2023-04-25T13:35:17.483Z,51.96
2023-04-25T13:37:44.300Z,54.42
2023-04-25T13:40:12.283Z,55.52
2023-04-25T13:42:39.867Z,56.71
2023-04-25T13:45:07.724Z,58.13
2023-04-25T13:47:35.087Z,58.50
2023-04-25T13:50:04.010Z,58.69
2023-04-25T13:52:30.921Z,57.79
2023-04-25T13:54:57.525Z,55.59
2023-04-25T13:57:24.322Z,49.45
2023-04-25T13:59:51.979Z,44.01
2023-04-25T14:02:19.083Z,41.75
2023-04-25T14:04:46.001Z,41.87
2023-04-25T14:07:13.078Z,43.59
2023-04-25T14:09:39.810Z,45.18
2023-04-25T14:12:07.011Z,48.36
2023-04-25T14:14:33.842Z,54.93
2023-04-25T14:17:00.989Z,58.71
2023-04-25T14:19:28.610Z,61.71
2023-04-25T14:21:55.435Z,64.71
2023-04-25T14:24:22.471Z,65.35
2023-04-25T14:26:49.273Z,66.24
2023-04-25T14:29:16.622Z,62.29
2023-04-25T14:31:43.691Z,60.45
2023-04-25T14:34:10.348Z,56.38
2023-04-25T14:36:37.439Z,51.70
2023-04-25T14:39:06.249Z,45.21
2023-04-25T14:41:33.299Z,39.74
2023-04-25T14:44:00.080Z,36.94
2023-04-25T14:46:27.631Z,34.07
2023-04-25T14:48:56.670Z,31.31
2023-04-25T14:51:23.496Z,29.70
2023-04-25T14:53:51.500Z,28.82
2023-04-25T14:56:18.417Z,28.12
2023-04-25T14:58:46.394Z,27.33
2023-04-25T15:01:13.970Z,26.57
2023-04-25T15:03:44.085Z,27.11
2023-04-25T15:06:11.519Z,27.95
2023-04-25T15:08:38.402Z,29.48
2023-04-25T15:11:05.013Z,31.78
2023-04-25T15:13:32.146Z,34.70
2023-04-25T15:15:59.067Z,38.84
2023-04-25T15:18:25.965Z,42.96
2023-04-25T15:20:53.102Z,46.31
2023-04-25T15:23:20.899Z,48.48
2023-04-25T15:25:48.309Z,50.82
2023-04-25T15:28:16.688Z,51.64
2023-04-25T15:30:46.626Z,56.75
2023-04-25T15:33:14.310Z,60.81
2023-04-25T15:35:41.298Z,60.99
2023-04-25T15:38:09.549Z,61.93
2023-04-25T15:40:36.532Z,62.54
2023-04-25T15:43:03.487Z,60.79
2023-04-25T15:45:32.307Z,59.90
2023-04-25T15:47:59.100Z,52.95
2023-04-25T15:50:26.350Z,47.02
2023-04-25T15:52:53.276Z,43.98
2023-04-25T15:55:21.787Z,42.90
2023-04-25T15:57:51.038Z,44.22
2023-04-25T16:00:19.346Z,46.19
2023-04-25T16:02:48.267Z,47.42
2023-04-25T16:05:15.823Z,48.74
2023-04-25T16:07:44.659Z,49.75
2023-04-25T16:10:13.018Z,51.49
2023-04-25T16:12:40.725Z,53.35
2023-04-25T16:15:08.265Z,54.70
2023-04-25T16:17:36.117Z,57.58
2023-04-25T16:20:09.540Z,60.19
2023-04-25T16:22:38.133Z,59.34
2023-04-25T16:25:05.721Z,61.35
2023-04-25T16:27:34.548Z,62.57
2023-04-25T16:30:02.174Z,62.49
2023-04-25T16:32:28.984Z,62.14
2023-04-25T16:34:56.957Z,60.91
2023-04-25T16:37:26.433Z,59.29
2023-04-25T16:39:53.647Z,59.06
2023-04-25T16:42:20.604Z,59.12
2023-04-25T16:44:47.490Z,58.88
2023-04-25T16:47:18.667Z,59.06
2023-04-25T16:49:46.876Z,57.85
2023-04-25T16:52:15.064Z,56.42
2023-04-25T16:54:41.868Z,56.07
2023-04-25T16:57:11.677Z,56.02
2023-04-25T16:59:39.145Z,56.40
2023-04-25T17:02:06.365Z,57.09
2023-04-25T17:04:33.626Z,58.34
2023-04-25T17:07:00.692Z,59.28
2023-04-25T17:09:29.228Z,59.50
2023-04-25T17:11:56.517Z,59.22
2023-04-25T17:14:23.272Z,59.50
2023-04-25T17:16:50.329Z,60.34
2023-04-25T17:19:17.069Z,59.89
2023-04-25T17:21:44.560Z,58.79
2023-04-25T17:24:12.152Z,57.57
2023-04-25T17:26:39.187Z,57.58
2023-04-25T17:29:06.173Z,57.87
2023-04-25T17:31:32.852Z,58.31
2023-04-25T17:33:59.895Z,59.35
2023-04-25T17:36:26.607Z,60.23
2023-04-25T17:38:53.383Z,60.78
2023-04-25T17:41:20.918Z,61.57
2023-04-25T17:43:49.986Z,61.93
2023-04-25T17:46:16.590Z,59.74
2023-04-25T17:48:43.199Z,59.27
2023-04-25T17:51:10.346Z,59.39
2023-04-25T17:53:37.121Z,58.53
2023-04-25T17:56:05.297Z,56.49
2023-04-25T17:58:33.768Z,54.84
2023-04-25T18:01:00.448Z,53.53
2023-04-25T18:03:27.579Z,54.13
2023-04-25T18:05:54.748Z,54.05
2023-04-25T18:08:22.671Z,54.92
2023-04-25T18:10:49.406Z,56.13
2023-04-25T18:13:17.220Z,56.86
2023-04-25T18:15:44.561Z,57.30
2023-04-25T18:18:19.705Z,58.45
2023-04-25T18:20:47.160Z,59.45
2023-04-25T18:23:13.835Z,60.28
2023-04-25T18:25:41.683Z,60.94
2023-04-25T18:28:09.051Z,61.69
2023-04-25T18:30:36.153Z,62.34
2023-04-25T18:33:03.014Z,62.62
2023-04-25T18:35:30.089Z,63.22
2023-04-25T18:37:56.861Z,63.39
2023-04-25T18:40:23.556Z,63.79
2023-04-25T18:42:50.508Z,64.74
2023-04-25T18:45:17.810Z,64.85
2023-04-25T18:47:46.724Z,64.98
2023-04-25T18:50:13.394Z,65.44
2023-04-25T18:52:39.934Z,65.82
2023-04-25T18:55:07.272Z,66.21
2023-04-25T18:57:34.449Z,66.81
2023-04-25T19:00:05.190Z,66.56
2023-04-25T19:02:31.908Z,67.29
2023-04-25T19:04:59.006Z,67.49
2023-04-25T19:07:28.134Z,67.67
2023-04-25T19:09:55.051Z,68.10
2023-04-25T19:12:21.851Z,68.49
2023-04-25T19:14:48.752Z,68.56
2023-04-25T19:17:15.406Z,68.73
2023-04-25T19:19:42.013Z,68.82
2023-04-25T19:22:08.629Z,68.50
2023-04-25T19:24:35.472Z,68.89
2023-04-25T19:27:02.927Z,69.08
2023-04-25T19:29:30.264Z,68.78
2023-04-25T19:31:59.548Z,69.21
2023-04-25T19:34:26.857Z,68.94
2023-04-25T19:36:54.263Z,68.83
2023-04-25T19:39:22.637Z,69.33
2023-04-25T19:41:49.456Z,69.11
2023-04-25T19:44:16.063Z,69.38
2023-04-25T19:46:45.812Z,68.85
2023-04-25T19:49:12.620Z,69.01
2023-04-25T19:51:39.541Z,69.13
2023-04-25T19:54:06.380Z,69.21
2023-04-25T19:56:33.394Z,69.03
2023-04-25T19:59:00.352Z,69.21
2023-04-25T20:01:27.206Z,69.18
2023-04-25T20:03:54.417Z,69.38
2023-04-25T20:06:21.788Z,69.34
2023-04-25T20:08:53.140Z,69.73
2023-04-25T20:11:19.921Z,69.82
2023-04-25T20:13:46.408Z,69.92
2023-04-25T20:16:13.514Z,70.42
2023-04-25T20:18:40.212Z,70.47
2023-04-25T20:21:08.537Z,70.64
2023-04-25T20:23:35.634Z,70.71
2023-04-25T20:26:04.676Z,70.74
2023-04-25T20:28:31.914Z,70.85
2023-04-25T20:30:59.312Z,70.91
2023-04-25T20:33:26.088Z,71.20
2023-04-25T20:35:53.095Z,71.49
2023-04-25T20:38:19.767Z,71.41
2023-04-25T20:40:46.457Z,71.68
2023-04-25T20:43:13.141Z,72.03
2023-04-25T20:45:40.097Z,72.19
2023-04-25T20:48:06.939Z,72.40
2023-04-25T20:50:34.161Z,71.40
2023-04-25T20:53:01.403Z,71.11
2023-04-25T20:55:28.138Z,71.54
2023-04-25T20:57:54.861Z,71.22
2023-04-25T21:00:27.343Z,71.26
2023-04-25T21:02:54.657Z,71.59
2023-04-25T21:05:24.575Z,71.93
2023-04-25T21:07:54.680Z,72.46
2023-04-25T21:10:21.572Z,72.80
2023-04-25T21:12:49.664Z,72.79
2023-04-25T21:15:18.306Z,72.88
2023-04-25T21:17:47.434Z,73.06
2023-04-25T21:20:20.311Z,73.17
2023-04-25T21:22:53.896Z,73.33
2023-04-25T21:25:29.154Z,73.46
2023-04-25T21:27:56.260Z,74.18
2023-04-25T21:30:24.729Z,74.42
2023-04-25T21:32:52.184Z,74.94
2023-04-25T21:35:20.084Z,75.31
2023-04-25T21:37:47.363Z,75.76
2023-04-25T21:40:14.665Z,76.42
2023-04-25T21:42:42.417Z,76.69
2023-04-25T21:45:10.214Z,76.38
2023-04-25T21:47:37.086Z,76.75
2023-04-25T21:50:04.720Z,76.39
2023-04-25T21:52:31.975Z,76.85
2023-04-25T21:54:59.132Z,76.75
2023-04-25T21:57:26.338Z,77.03
2023-04-25T21:59:54.090Z,77.08
2023-04-25T22:02:20.917Z,77.50
2023-04-25T22:04:48.091Z,77.31
2023-04-25T22:07:15.121Z,77.96
2023-04-25T22:09:53.866Z,78.02
2023-04-25T22:12:23.133Z,77.90
2023-04-25T22:14:50.263Z,78.14
2023-04-25T22:17:17.737Z,78.28
2023-04-25T22:19:45.413Z,78.26
2023-04-25T22:22:12.065Z,78.43
2023-04-25T22:24:38.853Z,78.89
2023-04-25T22:27:05.866Z,78.73
2023-04-25T22:29:33.010Z,79.17
2023-04-25T22:31:59.822Z,79.10
2023-04-25T22:34:26.790Z,79.59
2023-04-25T22:36:54.893Z,79.67
2023-04-25T22:39:21.960Z,79.64
2023-04-25T22:41:48.949Z,80.10
2023-04-25T22:44:16.177Z,80.10
2023-04-25T22:46:43.255Z,80.21
2023-04-25T22:49:10.055Z,80.48
2023-04-25T22:51:37.088Z,80.53
2023-04-25T22:54:05.430Z,80.21
2023-04-25T22:56:32.717Z,80.19
2023-04-25T22:58:59.684Z,80.57
2023-04-25T23:01:28.942Z,80.43
2023-04-25T23:03:55.992Z,80.80
2023-04-25T23:06:23.277Z,80.84
2023-04-25T23:08:50.358Z,81.08
2023-04-25T23:11:17.641Z,81.02
2023-04-25T23:13:44.226Z,81.41
2023-04-25T23:16:11.193Z,81.54
2023-04-25T23:18:39.532Z,81.69
2023-04-25T23:21:10.007Z,81.75
2023-04-25T23:23:36.961Z,81.67
2023-04-25T23:26:12.827Z,81.91
2023-04-25T23:28:49.010Z,82.02
2023-04-25T23:31:16.063Z,81.88
2023-04-25T23:33:42.817Z,82.20
2023-04-25T23:36:18.122Z,82.35
2023-04-25T23:38:45.065Z,82.24
2023-04-25T23:41:11.736Z,82.99
2023-04-25T23:43:38.599Z,82.85
2023-04-25T23:46:05.242Z,82.96
2023-04-25T23:48:31.958Z,83.30
2023-04-25T23:51:00.648Z,83.19
2023-04-25T23:53:27.454Z,83.38
2023-04-25T23:55:54.095Z,83.35
2023-04-25T23:58:20.883Z,83.64
